createdAt,value
2019-05-14T00:04:43.781Z,4.25
2019-05-14T00:10:45.963Z,3.80
2019-05-14T00:16:48.320Z,5.53
2019-05-14T00:22:52.143Z,3.72
2019-05-14T00:28:54.872Z,3.35
2019-05-14T00:34:57.064Z,4.12
2019-05-14T00:41:01.711Z,5.67
2019-05-14T00:47:03.506Z,3.55
2019-05-14T00:53:05.957Z,4.25
2019-05-14T00:59:08.205Z,6.05
2019-05-14T01:05:12.363Z,3.37
2019-05-14T01:11:14.679Z,4.70
2019-05-14T01:17:17.067Z,4.33
2019-05-14T01:23:21.481Z,5.37
2019-05-14T01:29:23.284Z,4.50
2019-05-14T01:35:25.475Z,4.03
2019-05-14T01:41:27.675Z,4.87
2019-05-14T01:47:31.991Z,4.20
2019-05-14T01:53:34.211Z,3.92
2019-05-14T01:59:36.554Z,4.78
2019-05-14T02:05:38.821Z,5.97
2019-05-14T02:11:41.605Z,4.58
2019-05-14T02:17:45.010Z,5.50
2019-05-14T02:23:47.241Z,7.25
2019-05-14T02:29:51.648Z,4.35
2019-05-14T02:35:53.701Z,8.38
2019-05-14T02:41:58.766Z,7.75
2019-05-14T02:48:02.063Z,6.00
2019-05-14T02:54:04.300Z,6.25
2019-05-14T03:00:10.208Z,8.45
2019-05-14T03:06:11.389Z,6.15
2019-05-14T03:12:13.765Z,4.45
2019-05-14T03:18:16.000Z,4.87
2019-05-14T03:24:21.094Z,4.55
2019-05-14T03:30:23.688Z,4.85
2019-05-14T03:36:28.938Z,5.50
2019-05-14T03:42:31.919Z,5.30
2019-05-14T03:48:40.079Z,5.70
2019-05-14T03:54:41.351Z,3.85
2019-05-14T04:00:50.102Z,5.47
2019-05-14T04:06:53.768Z,8.23
2019-05-14T04:12:59.864Z,11.15
2019-05-14T04:19:01.364Z,7.97
2019-05-14T04:25:10.536Z,7.17
2019-05-14T04:31:12.674Z,5.42
2019-05-14T04:37:15.197Z,11.38
2019-05-14T04:43:19.174Z,10.65
2019-05-14T04:49:23.577Z,5.90
2019-05-14T04:55:29.438Z,6.40
2019-05-14T05:01:31.715Z,6.95
2019-05-14T05:07:39.390Z,5.42
2019-05-14T05:13:41.235Z,4.55
2019-05-14T05:19:45.617Z,6.60
2019-05-14T05:25:49.033Z,5.62
2019-05-14T05:31:51.295Z,5.60
2019-05-14T05:37:53.565Z,7.03
2019-05-14T05:43:55.846Z,4.75
2019-05-14T05:50:00.216Z,3.67
2019-05-14T05:56:02.451Z,3.75
2019-05-14T06:02:05.134Z,5.12
2019-05-14T06:08:10.425Z,3.65
2019-05-14T06:14:13.811Z,5.08
2019-05-14T06:20:16.045Z,4.22
2019-05-14T06:26:19.327Z,4.37
2019-05-14T06:32:23.439Z,3.77
2019-05-14T06:38:26.220Z,3.70
2019-05-14T06:44:29.494Z,3.02
2019-05-14T06:50:34.051Z,3.60
2019-05-14T06:56:38.477Z,4.62
2019-05-14T07:02:43.714Z,4.78
2019-05-14T07:08:44.331Z,5.20
2019-05-14T07:14:48.199Z,3.42
2019-05-14T07:20:50.528Z,5.28
2019-05-14T07:26:53.223Z,3.87
2019-05-14T07:32:55.567Z,3.22
2019-05-14T07:39:00.278Z,4.45
2019-05-14T07:45:01.931Z,2.90
2019-05-14T07:51:04.193Z,3.67
2019-05-14T07:57:08.465Z,3.17
2019-05-14T08:03:10.468Z,3.05
2019-05-14T08:09:12.647Z,2.72
2019-05-14T08:15:20.023Z,3.70
2019-05-14T08:21:20.244Z,2.08
2019-05-14T08:27:27.965Z,4.05
2019-05-14T08:33:28.934Z,2.02
2019-05-14T08:39:30.888Z,2.83
2019-05-14T08:45:33.255Z,4.05
2019-05-14T08:51:35.685Z,1.90
2019-05-14T08:57:38.871Z,2.90
2019-05-14T09:03:41.456Z,3.25
2019-05-14T09:09:43.691Z,3.10
2019-05-14T09:15:46.009Z,4.37
2019-05-14T09:21:49.693Z,3.65
2019-05-14T09:27:51.961Z,2.95
2019-05-14T09:33:54.111Z,6.40
2019-05-14T09:39:58.409Z,3.22
2019-05-14T09:46:00.639Z,2.90
2019-05-14T09:52:03.276Z,2.60
2019-05-14T09:58:05.431Z,4.47
2019-05-14T10:04:09.203Z,2.85
2019-05-14T10:10:11.800Z,5.12
2019-05-14T10:16:13.977Z,2.75
2019-05-14T10:22:16.152Z,3.80
2019-05-14T10:28:19.421Z,2.62
2019-05-14T10:34:23.746Z,2.92
2019-05-14T10:40:29.067Z,2.08
2019-05-14T10:46:30.240Z,1.52
2019-05-14T10:52:32.556Z,1.50
2019-05-14T10:58:34.836Z,1.60
2019-05-14T11:04:38.995Z,1.60
2019-05-14T11:10:42.187Z,3.15
2019-05-14T11:16:44.925Z,1.22
2019-05-14T11:22:49.107Z,2.72
2019-05-14T11:28:51.552Z,1.27
2019-05-14T11:34:54.640Z,1.47
2019-05-14T11:40:58.825Z,1.75
2019-05-14T11:47:02.654Z,1.45
2019-05-14T11:53:08.471Z,1.87
2019-05-14T11:59:11.579Z,2.00
2019-05-14T12:05:13.961Z,2.05
2019-05-14T12:11:19.312Z,2.55
2019-05-14T12:17:20.917Z,1.77
2019-05-14T12:23:23.256Z,1.75
2019-05-14T12:29:25.509Z,1.32
2019-05-14T12:35:29.258Z,2.05
2019-05-14T12:41:31.816Z,2.70
2019-05-14T12:47:34.045Z,5.80
2019-05-14T12:53:39.762Z,3.12
2019-05-14T12:59:42.031Z,1.62
2019-05-14T13:05:44.279Z,2.85
2019-05-14T13:11:47.997Z,1.67
2019-05-14T13:17:50.705Z,1.85
2019-05-14T13:23:53.076Z,2.22
2019-05-14T13:29:56.019Z,2.85
2019-05-14T13:35:59.492Z,2.33
2019-05-14T13:42:01.738Z,2.02
2019-05-14T13:48:04.071Z,3.05
2019-05-14T13:54:08.673Z,2.52
2019-05-14T14:00:12.256Z,1.45
2019-05-14T14:06:14.738Z,4.05
2019-05-14T14:12:17.044Z,2.15
2019-05-14T14:18:20.951Z,4.33
2019-05-14T14:24:23.187Z,3.55
2019-05-14T14:30:25.398Z,2.15
2019-05-14T14:36:29.953Z,2.65
2019-05-14T14:42:35.531Z,2.37
2019-05-14T14:48:39.334Z,3.65
2019-05-14T14:54:42.674Z,2.17
2019-05-14T15:00:44.932Z,3.62
2019-05-14T15:06:50.441Z,6.70
2019-05-14T15:12:51.353Z,2.72
2019-05-14T15:18:53.557Z,2.10
2019-05-14T15:24:58.386Z,3.55
2019-05-14T15:30:59.809Z,1.90
2019-05-14T15:37:02.230Z,1.72
2019-05-14T15:43:04.385Z,1.98
2019-05-14T15:49:09.002Z,2.12
2019-05-14T15:55:12.196Z,1.80
2019-05-14T16:01:14.570Z,0.85
2019-05-14T16:07:18.596Z,2.60
2019-05-14T16:13:21.330Z,1.70
2019-05-14T16:19:23.800Z,3.15
2019-05-14T16:25:28.463Z,2.77
2019-05-14T16:31:31.505Z,1.87
2019-05-14T16:37:33.895Z,2.42
2019-05-14T16:43:36.277Z,3.10
2019-05-14T16:49:38.585Z,1.52
2019-05-14T16:55:48.754Z,2.55
2019-05-14T17:01:50.465Z,1.82
2019-05-14T17:07:52.609Z,2.33
2019-05-14T17:13:58.014Z,1.82
2019-05-14T17:20:00.826Z,2.58
2019-05-14T17:26:03.017Z,3.47
2019-05-14T17:32:08.690Z,1.70
2019-05-14T17:38:12.034Z,2.35
2019-05-14T17:44:14.472Z,2.45
2019-05-14T17:50:18.357Z,1.50
2019-05-14T17:56:24.970Z,3.55
2019-05-14T18:02:28.723Z,4.80
2019-05-14T18:08:31.163Z,2.47
2019-05-14T18:14:33.498Z,1.47
2019-05-14T18:20:39.445Z,2.15
2019-05-14T18:26:42.257Z,2.20
2019-05-14T18:32:45.153Z,1.75
2019-05-14T18:38:49.389Z,2.30
2019-05-14T18:44:51.871Z,2.27
2019-05-14T18:50:54.971Z,1.37
2019-05-14T18:57:01.384Z,1.62
2019-05-14T19:03:03.642Z,2.62
2019-05-14T19:09:10.519Z,2.65
2019-05-14T19:15:11.612Z,2.45
2019-05-14T19:21:13.813Z,2.62
2019-05-14T19:27:16.141Z,2.27
2019-05-14T19:33:20.559Z,2.20
2019-05-14T19:39:22.645Z,2.58
2019-05-14T19:45:24.848Z,2.40
2019-05-14T19:51:28.507Z,2.20
2019-05-14T19:57:32.881Z,2.30
2019-05-14T20:03:35.196Z,2.22
2019-05-14T20:09:38.809Z,2.72
2019-05-14T20:15:41.285Z,2.85
2019-05-14T20:21:43.516Z,2.50
2019-05-14T20:27:47.898Z,2.30
2019-05-14T20:33:49.903Z,1.80
2019-05-14T20:39:52.514Z,1.72
2019-05-14T20:45:55.760Z,2.02
2019-05-14T20:51:59.483Z,2.47
2019-05-14T20:58:04.060Z,1.40
2019-05-14T21:04:08.768Z,1.80
2019-05-14T21:10:10.433Z,2.33
2019-05-14T21:16:12.588Z,2.12
2019-05-14T21:22:14.790Z,1.92
2019-05-14T21:28:19.352Z,1.47
2019-05-14T21:34:21.635Z,1.40
2019-05-14T21:40:23.910Z,2.02
2019-05-14T21:46:28.823Z,1.45
2019-05-14T21:52:30.067Z,1.85
2019-05-14T21:58:38.522Z,2.63
2019-05-14T22:04:40.437Z,1.92
2019-05-14T22:10:42.567Z,1.92
2019-05-14T22:16:44.852Z,1.87
2019-05-14T22:22:48.374Z,1.85
2019-05-14T22:28:51.803Z,1.85
2019-05-14T22:34:53.975Z,2.15
2019-05-14T22:40:56.151Z,2.00
2019-05-14T22:46:58.759Z,2.45
2019-05-14T22:53:01.096Z,2.52
2019-05-14T22:59:03.433Z,1.92
2019-05-14T23:05:07.875Z,2.40
2019-05-14T23:11:10.127Z,3.45
2019-05-14T23:17:12.475Z,2.95
2019-05-14T23:23:14.666Z,2.27
2019-05-14T23:29:16.867Z,4.05
2019-05-14T23:35:19.118Z,2.70
2019-05-14T23:41:21.419Z,3.12
2019-05-14T23:47:23.693Z,2.77
2019-05-14T23:53:25.862Z,3.45
2019-05-14T23:59:29.356Z,2.92
